Time;durP1;ratioP1;P1;durP2;ratioP2;P2;SDS_P1;SDS_P2;PMS_P1;PMS_P2;Temp;Humidity;BMP_temperature;BMP_pressure;BME280_temperature;BME280_humidity;BME280_pressure;Samples;Min_cycle;Max_cycle;Signal;HPM_P1;HPM_P2
2022/01/15 00:01:17;;;;;;;20.42;13.77;;;;;;;1.64;73.12;97997.59;5060184;28;20030;-86
2022/01/15 00:03:58;;;;;;;23.67;15.65;;;;;;;1.46;72.07;97992.69;5059913;28;20056;-87
2022/01/15 00:06:42;;;;;;;22.02;15.20;;;;;;;1.40;73.73;97993.88;5060512;28;20044;-89
2022/01/15 00:09:19;;;;;;;21.08;14.30;;;;;;;1.38;74.74;97991.41;5060435;28;20100;-89
2022/01/15 00:11:55;;;;;;;24.42;15.05;;;;;;;1.37;72.85;97991.50;5060532;28;20071;-88
2022/01/15 00:14:38;;;;;;;21.58;15.02;;;;;;;1.37;74.90;97994.06;5060596;28;20102;-88
2022/01/15 00:17:32;;;;;;;19.73;13.55;;;;;;;1.40;74.83;97999.00;5059991;28;20052;-87
2022/01/15 00:20:09;;;;;;;19.88;14.52;;;;;;;1.42;75.47;97997.19;5060625;28;20060;-87
2022/01/15 00:23:03;;;;;;;24.02;14.63;;;;;;;1.41;73.67;98000.69;5060261;28;20029;-86
2022/01/15 00:25:51;;;;;;;24.50;16.25;;;;;;;1.33;72.18;98003.69;5055815;28;20080;-87
2022/01/15 00:28:30;;;;;;;24.38;18.23;;;;;;;1.26;75.37;97996.44;5059700;28;20080;-88
2022/01/15 00:31:05;;;;;;;24.60;15.82;;;;;;;1.31;75.83;98000.41;5060302;28;20046;-91
2022/01/15 00:33:44;;;;;;;27.42;18.33;;;;;;;1.32;74.31;97999.47;5060329;28;20057;-90
2022/01/15 00:36:18;;;;;;;26.42;16.42;;;;;;;1.29;73.04;97988.53;5059753;28;20054;-89
2022/01/15 00:39:07;;;;;;;26.15;16.35;;;;;;;1.22;72.19;97988.91;5059973;28;20069;-89
2022/01/15 00:41:37;;;;;;;21.80;14.30;;;;;;;1.20;73.14;97993.31;5059767;28;20030;-89
2022/01/15 00:44:13;;;;;;;22.02;14.23;;;;;;;1.18;74.71;97990.00;5060036;28;20026;-89
2022/01/15 00:46:52;;;;;;;21.23;13.68;;;;;;;1.20;74.92;97993.31;5059697;28;20180;-88
2022/01/15 00:49:25;;;;;;;16.02;11.35;;;;;;;1.21;75.48;97989.00;5059968;28;20044;-90
2022/01/15 00:52:02;;;;;;;15.90;10.35;;;;;;;1.21;74.05;97984.69;5059823;28;20030;-87
2022/01/15 00:54:34;;;;;;;19.38;12.15;;;;;;;1.24;75.22;97978.53;5059261;28;20059;-88
2022/01/15 00:57:14;;;;;;;15.20;10.98;;;;;;;1.27;75.04;97987.78;5059017;28;20048;-89
2022/01/15 00:59:50;;;;;;;20.88;13.05;;;;;;;1.23;73.86;97985.41;5059495;28;20109;-86
2022/01/15 01:02:33;;;;;;;13.93;9.05;;;;;;;1.18;73.41;97984.00;5058944;28;20045;-90
2022/01/15 01:05:19;;;;;;;21.55;14.02;;;;;;;1.17;75.66;97972.91;5059101;28;20049;-85
2022/01/15 01:07:50;;;;;;;23.40;15.20;;;;;;;1.23;76.63;97976.88;5058252;28;20056;-88
2022/01/15 01:10:45;;;;;;;20.73;15.30;;;;;;;1.26;77.44;97973.31;5058159;28;20133;-86
2022/01/15 01:13:39;;;;;;;24.15;16.10;;;;;;;1.26;76.78;97978.44;5058204;28;20025;-89
2022/01/15 01:24:23;;;;;;;23.00;15.65;;;;;;;1.10;75.20;97966.47;5056818;28;20113;-90
2022/01/15 01:26:57;;;;;;;21.13;12.63;;;;;;;1.01;73.18;97959.31;5057192;28;20054;-90
2022/01/15 01:29:34;;;;;;;19.38;13.15;;;;;;;0.95;73.94;97969.94;5057411;28;20055;-89
2022/01/15 01:32:07;;;;;;;22.25;13.88;;;;;;;0.94;74.23;97960.56;5057236;28;20056;-89
2022/01/15 01:34:38;;;;;;;19.30;13.57;;;;;;;0.95;75.42;97952.78;5057185;28;20109;-89
2022/01/15 01:37:13;;;;;;;15.40;8.60;;;;;;;0.93;73.59;97964.06;5056518;28;20050;-90
2022/01/15 01:39:45;;;;;;;12.80;7.93;;;;;;;0.80;72.83;97954.47;5058611;28;20047;-89
2022/01/15 01:42:33;;;;;;;13.88;9.30;;;;;;;0.76;73.13;97950.41;5058750;28;20044;-91
2022/01/15 01:45:06;;;;;;;15.32;9.48;;;;;;;0.75;73.11;97950.53;5058563;28;20040;-90
2022/01/15 01:47:39;;;;;;;10.68;6.82;;;;;;;0.72;72.77;97955.81;5057954;28;20042;-90
2022/01/15 01:50:12;;;;;;;11.32;5.88;;;;;;;0.71;72.05;97944.72;5058321;28;20057;-91
2022/01/15 01:52:40;;;;;;;9.48;6.60;;;;;;;0.69;73.64;97946.56;5058429;28;20041;-87
2022/01/15 01:55:09;;;;;;;11.25;5.97;;;;;;;0.69;73.20;97951.69;5058229;28;20045;-91
2022/01/15 01:57:38;;;;;;;11.95;7.15;;;;;;;0.73;74.33;97937.75;5057824;28;20029;-88
2022/01/15 02:00:07;;;;;;;13.50;7.97;;;;;;;0.81;74.31;97935.59;5058081;28;20100;-88
2022/01/15 02:02:35;;;;;;;13.60;7.82;;;;;;;0.85;73.65;97943.13;5058191;28;20097;-89
2022/01/15 02:05:04;;;;;;;14.80;9.27;;;;;;;0.87;74.68;97936.16;5057832;28;20083;-89
2022/01/15 02:07:32;;;;;;;14.32;9.43;;;;;;;0.89;75.60;97935.13;5056612;28;20044;-88
2022/01/15 02:10:00;;;;;;;16.88;10.93;;;;;;;0.93;76.11;97931.47;5057806;28;20053;-89
2022/01/15 02:12:27;;;;;;;19.42;12.57;;;;;;;0.92;75.13;97923.84;5057810;28;20029;-86
2022/01/15 02:14:57;;;;;;;19.13;12.65;;;;;;;0.81;73.21;97930.47;5057524;28;20053;-88
2022/01/15 02:17:24;;;;;;;25.63;14.25;;;;;;;0.67;72.44;97927.00;5057326;28;20030;-86
2022/01/15 02:20:21;;;;;;;19.05;12.88;;;;;;;0.57;73.14;97926.72;5057895;28;20040;-90
2022/01/15 02:25:42;;;;;;;16.08;10.27;;;;;;;0.56;72.70;97913.03;5058081;28;20152;-90
2022/01/15 02:28:11;;;;;;;17.27;11.07;;;;;;;0.61;74.26;97907.63;5058085;28;20060;-88
2022/01/15 02:30:39;;;;;;;18.25;11.45;;;;;;;0.66;75.34;97905.66;5058074;28;20037;-88
2022/01/15 02:33:09;;;;;;;15.98;9.25;;;;;;;0.63;73.16;97910.94;5058001;28;20093;-89
2022/01/15 02:35:38;;;;;;;13.70;9.55;;;;;;;0.52;73.56;97908.16;5057834;28;20037;-92
2022/01/15 02:38:08;;;;;;;15.80;9.48;;;;;;;0.52;74.20;97903.03;5057696;28;20093;-91
2022/01/15 02:40:36;;;;;;;14.73;9.75;;;;;;;0.53;73.91;97904.69;5057806;28;20092;-90
2022/01/15 02:43:04;;;;;;;14.80;9.57;;;;;;;0.55;75.31;97905.44;5057913;28;20103;-88
2022/01/15 02:45:34;;;;;;;13.30;8.85;;;;;;;0.58;75.57;97903.50;5057701;28;20033;-91
2022/01/15 02:48:03;;;;;;;17.30;10.73;;;;;;;0.64;76.50;97899.78;5057620;28;20061;-91
2022/01/15 02:50:31;;;;;;;20.65;13.82;;;;;;;0.73;77.09;97896.66;5057870;28;20101;-90
2022/01/15 02:53:03;;;;;;;24.13;13.70;;;;;;;0.76;75.83;97893.09;5057767;28;20029;-90
2022/01/15 02:55:31;;;;;;;23.65;14.75;;;;;;;0.70;74.66;97896.00;5057788;28;20054;-90
2022/01/15 02:57:59;;;;;;;21.38;13.88;;;;;;;0.57;72.93;97895.91;5057335;28;20101;-93
2022/01/15 03:00:28;;;;;;;19.95;14.07;;;;;;;0.46;73.35;97893.94;5057548;28;20061;-91
2022/01/15 03:02:56;;;;;;;21.63;14.15;;;;;;;0.43;74.19;97886.41;5057636;28;20092;-91
2022/01/15 03:05:24;;;;;;;19.73;13.82;;;;;;;0.46;74.05;97883.69;5057623;28;20044;-90
2022/01/15 03:07:51;;;;;;;22.05;14.95;;;;;;;0.45;73.34;97876.06;5057179;28;20037;-91
2022/01/15 03:10:21;;;;;;;23.33;13.25;;;;;;;0.38;73.32;97876.41;5057624;28;20105;-90
2022/01/15 03:12:49;;;;;;;19.55;12.52;;;;;;;0.34;72.48;97874.09;5057583;28;20097;-90
2022/01/15 03:15:19;;;;;;;19.17;12.50;;;;;;;0.28;72.40;97874.44;5057431;28;20097;-90
2022/01/15 03:17:47;;;;;;;19.08;12.65;;;;;;;0.28;73.75;97865.00;5057235;28;20044;-90
2022/01/15 03:20:17;;;;;;;19.17;13.88;;;;;;;0.32;75.45;97866.47;5061314;28;20108;-90
2022/01/15 03:22:46;;;;;;;19.90;13.52;;;;;;;0.43;76.15;97855.59;5061477;28;20093;-88
2022/01/15 03:25:14;;;;;;;20.30;13.65;;;;;;;0.53;76.42;97853.34;5061505;28;20049;-89
2022/01/15 03:27:44;;;;;;;21.08;12.90;;;;;;;0.56;75.71;97868.56;5061192;28;20032;-87
2022/01/15 03:30:13;;;;;;;21.48;13.70;;;;;;;0.49;73.97;97864.72;5061419;28;20053;-91
2022/01/15 03:32:43;;;;;;;18.25;13.27;;;;;;;0.44;74.30;97851.28;5061357;28;20049;-89
2022/01/15 03:35:13;;;;;;;20.17;14.68;;;;;;;0.46;75.65;97842.59;5061430;28;20033;-92
2022/01/15 03:37:41;;;;;;;19.85;13.85;;;;;;;0.42;74.00;97851.41;5060934;28;20095;-89
2022/01/15 03:40:13;;;;;;;24.23;15.40;;;;;;;0.26;71.99;97845.47;5061271;28;20060;-91
2022/01/15 03:42:41;;;;;;;22.15;14.23;;;;;;;0.13;72.02;97855.59;5061084;28;20034;-90
2022/01/15 03:45:12;;;;;;;22.00;15.23;;;;;;;0.06;73.48;97849.16;5061159;28;20034;-91
2022/01/15 03:47:41;;;;;;;22.75;15.48;;;;;;;0.13;75.65;97845.31;5060816;28;20108;-90
2022/01/15 03:50:10;;;;;;;21.95;14.30;;;;;;;0.16;75.02;97843.41;5061031;28;20084;-90
2022/01/15 03:52:38;;;;;;;23.15;14.43;;;;;;;0.12;73.26;97847.06;5060996;28;20101;-89
2022/01/15 03:55:08;;;;;;;21.80;14.82;;;;;;;0.10;75.07;97841.19;5061053;28;20033;-88
2022/01/15 03:57:37;;;;;;;18.85;13.45;;;;;;;0.15;75.52;97838.38;5060419;28;20041;-88
2022/01/15 04:00:06;;;;;;;20.48;12.88;;;;;;;0.11;74.04;97835.16;5060683;28;20109;-90
2022/01/15 04:02:35;;;;;;;19.48;14.15;;;;;;;0.07;74.96;97841.38;5060561;28;20080;-89
2022/01/15 04:05:03;;;;;;;23.02;14.20;;;;;;;0.11;75.91;97842.00;5060639;28;20059;-90
2022/01/15 04:07:31;;;;;;;19.60;13.98;;;;;;;0.18;76.91;97838.22;5060215;28;20089;-89
2022/01/15 04:09:59;;;;;;;22.67;13.95;;;;;;;0.21;75.85;97832.91;5060518;28;20038;-89
2022/01/15 04:12:27;;;;;;;19.85;13.05;;;;;;;0.23;75.23;97836.22;5060302;28;20093;-87
2022/01/15 04:14:55;;;;;;;21.15;13.70;;;;;;;0.25;75.19;97833.56;5060352;28;20108;-89
2022/01/15 04:17:25;;;;;;;21.30;13.63;;;;;;;0.23;74.64;97831.06;5060142;28;20126;-90
2022/01/15 04:19:54;;;;;;;22.65;14.45;;;;;;;0.24;73.84;97831.88;5060299;28;20049;-90
2022/01/15 04:22:22;;;;;;;20.10;12.95;;;;;;;0.17;72.55;97828.84;5060389;28;20049;-90
2022/01/15 04:24:50;;;;;;;19.15;13.52;;;;;;;0.13;74.55;97837.63;5060415;28;20037;-91
2022/01/15 04:27:22;;;;;;;20.80;13.23;;;;;;;0.18;76.16;97836.47;5060022;28;20037;-90
2022/01/15 04:29:50;;;;;;;20.23;13.85;;;;;;;0.26;77.04;97833.44;5059569;28;20036;-90
2022/01/15 04:32:19;;;;;;;19.75;13.80;;;;;;;0.35;77.68;97838.09;5060157;28;20033;-87
2022/01/15 04:34:47;;;;;;;19.45;13.10;;;;;;;0.40;77.20;97843.78;5060260;28;20036;-92
2022/01/15 04:37:20;;;;;;;19.73;13.70;;;;;;;0.40;77.54;97843.78;5059845;28;20057;-90
2022/01/15 04:39:48;;;;;;;20.63;13.60;;;;;;;0.44;77.08;97841.00;5060153;28;20056;-91
2022/01/15 04:42:20;;;;;;;19.92;13.73;;;;;;;0.43;76.99;97842.75;5059934;28;20109;-90
2022/01/15 04:44:48;;;;;;;25.25;13.45;;;;;;;0.41;76.59;97845.41;5060043;28;20063;-87
2022/01/15 04:47:16;;;;;;;20.15;13.98;;;;;;;0.37;77.00;97843.09;5059682;28;20113;-91
2022/01/15 04:49:44;;;;;;;20.13;14.07;;;;;;;0.40;77.41;97840.38;5059960;28;20029;-90
2022/01/15 04:52:11;;;;;;;21.73;13.73;;;;;;;0.39;76.06;97846.41;5059867;28;20057;-89
2022/01/15 04:54:41;;;;;;;18.13;12.32;;;;;;;0.29;75.09;97840.19;5059732;28;20029;-87
2022/01/15 04:57:09;;;;;;;21.00;14.45;;;;;;;0.27;76.71;97845.38;5059487;28;20025;-91
2022/01/15 04:59:37;;;;;;;19.83;13.88;;;;;;;0.30;76.78;97850.34;5059746;28;20093;-87
2022/01/15 05:02:04;;;;;;;18.80;12.98;;;;;;;0.24;74.63;97843.00;5059669;28;20030;-90
2022/01/15 05:04:32;;;;;;;21.02;13.52;;;;;;;0.13;73.18;97855.59;5059443;28;20047;-90
2022/01/15 05:07:00;;;;;;;19.88;13.30;;;;;;;0.09;75.38;97848.97;5059363;28;20037;-89
2022/01/15 05:09:28;;;;;;;16.98;12.88;;;;;;;0.14;76.48;97847.00;5059198;28;20089;-91
2022/01/15 05:12:02;;;;;;;20.30;13.60;;;;;;;0.14;74.97;97852.13;5059410;28;20061;-89
2022/01/15 05:14:30;;;;;;;20.70;12.52;;;;;;;0.06;73.43;97844.03;5059364;28;20037;-90
2022/01/15 05:16:58;;;;;;;22.33;13.57;;;;;;;-0.05;72.67;97840.31;5058959;28;20041;-90
2022/01/15 05:19:26;;;;;;;21.90;13.82;;;;;;;-0.12;73.07;97845.88;5059311;28;20055;-90
2022/01/15 05:21:56;;;;;;;20.90;13.23;;;;;;;-0.15;73.17;97834.06;5059214;28;20037;-93
2022/01/15 05:24:25;;;;;;;22.25;14.55;;;;;;;-0.08;74.92;97837.91;5059171;28;20041;-87
2022/01/15 05:26:54;;;;;;;20.15;13.98;;;;;;;0.02;76.93;97840.78;5058826;28;20056;-86
2022/01/15 05:29:25;;;;;;;21.05;14.40;;;;;;;0.13;77.72;97837.63;5059085;28;20056;-90
2022/01/15 05:31:53;;;;;;;22.50;14.80;;;;;;;0.21;77.59;97827.75;5058980;28;20037;-88
2022/01/15 05:34:21;;;;;;;21.80;14.38;;;;;;;0.24;77.17;97837.88;5058626;28;20045;-88
2022/01/15 05:36:48;;;;;;;18.08;12.75;;;;;;;0.16;74.73;97837.47;5058642;28;20101;-88
2022/01/15 05:39:16;;;;;;;21.02;13.68;;;;;;;-0.03;72.87;97830.78;5058756;28;20383;-88
2022/01/15 05:41:44;;;;;;;20.40;13.68;;;;;;;-0.17;72.57;97841.00;5058139;28;20060;-89
2022/01/15 05:44:12;;;;;;;19.70;13.23;;;;;;;-0.29;72.72;97845.03;5058934;28;20057;-91
2022/01/15 05:46:41;;;;;;;25.33;16.10;;;;;;;-0.36;72.70;97848.03;5058594;28;20026;-88
2022/01/15 05:49:09;;;;;;;22.88;15.52;;;;;;;-0.42;73.42;97855.16;5058881;28;20034;-90
2022/01/15 05:51:37;;;;;;;20.80;14.82;;;;;;;-0.37;74.95;97848.94;5058932;28;20109;-90
2022/01/15 05:54:10;;;;;;;21.90;14.75;;;;;;;-0.27;76.68;97847.53;5058752;28;20040;-90
2022/01/15 05:56:39;;;;;;;24.60;16.17;;;;;;;-0.13;78.30;97852.75;5058560;28;20096;-88
2022/01/15 05:59:07;;;;;;;24.08;16.25;;;;;;;0.00;78.62;97850.34;5058694;28;20113;-90
2022/01/15 06:01:36;;;;;;;22.80;15.65;;;;;;;0.12;79.10;97839.38;5058572;28;20104;-90
2022/01/15 06:04:06;;;;;;;22.80;16.05;;;;;;;0.24;79.25;97848.13;5058480;28;20049;-90
2022/01/15 06:06:34;;;;;;;23.55;16.83;;;;;;;0.35;79.29;97848.34;5058361;28;20029;-87
2022/01/15 06:09:04;;;;;;;23.85;15.70;;;;;;;0.36;77.32;97842.28;5057267;28;20029;-89
2022/01/15 06:11:34;;;;;;;19.40;14.00;;;;;;;0.34;75.84;97845.88;5058430;28;20049;-89
2022/01/15 06:14:02;;;;;;;22.13;14.88;;;;;;;0.36;75.77;97842.28;5058290;28;20056;-87
2022/01/15 06:16:30;;;;;;;22.27;15.18;;;;;;;0.37;74.93;97838.81;5057653;28;20037;-87
2022/01/15 06:18:59;;;;;;;22.85;14.20;;;;;;;0.44;74.88;97838.44;5057964;28;20056;-88
2022/01/15 06:21:29;;;;;;;22.98;16.33;;;;;;;0.48;75.33;97839.94;5057801;28;20124;-87
2022/01/15 06:23:56;;;;;;;23.15;14.98;;;;;;;0.50;74.76;97838.91;5057970;28;20029;-91
2022/01/15 06:26:24;;;;;;;24.02;16.35;;;;;;;0.53;76.09;97835.38;5057649;28;20033;-88
2022/01/15 06:28:56;;;;;;;21.13;15.93;;;;;;;0.54;76.29;97829.31;5057030;28;20030;-89
2022/01/15 06:31:29;;;;;;;24.65;16.95;;;;;;;0.56;77.16;97832.63;5057662;28;20048;-88
2022/01/15 06:33:57;;;;;;;19.02;13.82;;;;;;;0.54;75.24;97824.19;5041694;28;20049;-90
2022/01/15 06:36:25;;;;;;;22.58;15.27;;;;;;;0.41;73.42;97831.75;5046674;28;20060;-90
2022/01/15 06:38:56;;;;;;;21.88;16.48;;;;;;;0.26;72.50;97830.06;5048673;28;20125;-91
2022/01/15 06:41:31;;;;;;;24.42;17.58;;;;;;;0.14;73.06;97836.72;5047411;28;20105;-92
2022/01/15 06:44:03;;;;;;;28.52;16.83;;;;;;;0.15;73.40;97828.97;5046856;28;20053;-86
2022/01/15 06:46:31;;;;;;;31.40;19.23;;;;;;;0.16;73.77;97835.72;5044664;28;20053;-88
2022/01/15 06:48:59;;;;;;;37.15;24.02;;;;;;;0.23;75.04;97836.22;5036435;28;20503;-89
2022/01/15 06:51:29;;;;;;;28.13;18.55;;;;;;;0.29;74.61;97835.88;5038607;28;20475;-88
2022/01/15 06:53:58;;;;;;;31.70;19.25;;;;;;;0.24;74.29;97837.03;5036631;28;20064;-87
2022/01/15 06:56:25;;;;;;;28.83;18.70;;;;;;;0.23;74.70;97836.22;5035855;28;20049;-92
2022/01/15 06:58:53;;;;;;;25.90;18.17;;;;;;;0.27;75.77;97834.31;5036765;28;20060;-87
2022/01/15 07:01:20;;;;;;;28.50;18.90;;;;;;;0.29;74.95;97835.88;5036944;28;20454;-89
2022/01/15 07:03:48;;;;;;;29.73;19.30;;;;;;;0.30;74.57;97834.94;5036454;28;20053;-89
2022/01/15 07:06:16;;;;;;;36.15;21.23;;;;;;;0.34;74.89;97827.91;5034949;28;20493;-87
2022/01/15 07:08:43;;;;;;;38.17;24.90;;;;;;;0.39;76.23;97831.88;5036078;28;20049;-92
2022/01/15 07:11:12;;;;;;;37.55;24.60;;;;;;;0.47;77.02;97838.28;5037020;28;20045;-84
2022/01/15 07:13:40;;;;;;;34.17;22.35;;;;;;;0.51;77.10;97824.38;5035578;28;20053;-88
2022/01/15 07:16:07;;;;;;;27.42;17.02;;;;;;;0.52;75.86;97821.69;5034831;28;20064;-91
2022/01/15 07:18:35;;;;;;;30.58;20.55;;;;;;;0.49;76.02;97829.59;5034870;28;20495;-81
2022/01/15 07:21:02;;;;;;;28.80;20.00;;;;;;;0.53;76.77;97825.94;5035212;28;20050;-86
2022/01/15 07:23:30;;;;;;;27.90;18.30;;;;;;;0.52;76.24;97826.00;5034599;28;20053;-90
2022/01/15 07:25:58;;;;;;;29.08;19.85;;;;;;;0.49;74.87;97815.94;5034129;28;20049;-89
2022/01/15 07:28:29;;;;;;;32.53;19.92;;;;;;;0.45;74.14;97815.25;5035389;28;20057;-88
2022/01/15 07:30:57;;;;;;;30.92;20.40;;;;;;;0.46;75.31;97810.94;5038150;28;20423;-85
2022/01/15 07:33:25;;;;;;;32.13;21.80;;;;;;;0.50;75.21;97812.44;5045804;28;20054;-91
2022/01/15 07:35:54;;;;;;;29.80;21.45;;;;;;;0.55;76.48;97813.00;5043160;28;20057;-90
2022/01/15 07:38:22;;;;;;;30.90;21.10;;;;;;;0.65;77.67;97816.66;5043243;28;20053;-90
2022/01/15 07:40:53;;;;;;;34.50;22.48;;;;;;;0.72;77.29;97818.00;5041027;28;20041;-89
2022/01/15 07:43:21;;;;;;;34.03;23.05;;;;;;;0.73;76.58;97813.66;5043002;28;20046;-93
2022/01/15 07:45:50;;;;;;;33.83;23.10;;;;;;;0.69;76.21;97815.59;5045040;28;20498;-91
2022/01/15 07:48:21;;;;;;;31.08;20.20;;;;;;;0.65;75.09;97818.41;5047745;28;20096;-92
2022/01/15 07:50:53;;;;;;;33.80;21.95;;;;;;;0.58;74.26;97815.38;5043932;28;20105;-91
2022/01/15 07:53:22;;;;;;;33.15;22.45;;;;;;;0.56;75.06;97812.91;5041050;28;20051;-91
2022/01/15 07:55:51;;;;;;;36.42;24.95;;;;;;;0.63;75.55;97815.13;5043820;28;20053;-87
2022/01/15 07:58:22;;;;;;;36.97;23.30;;;;;;;0.63;76.22;97815.94;5047933;28;20052;-92
2022/01/15 08:00:55;;;;;;;36.22;23.40;;;;;;;0.70;77.19;97821.53;5044140;28;20109;-92
2022/01/15 08:03:22;;;;;;;32.75;22.00;;;;;;;0.78;77.26;97830.44;5038219;28;20046;-91
2022/01/15 08:05:50;;;;;;;33.05;21.42;;;;;;;0.82;76.33;97824.22;5040234;28;20045;-90
2022/01/15 08:08:21;;;;;;;34.83;24.10;;;;;;;0.86;76.75;97818.91;5053574;28;20040;-87
2022/01/15 08:10:51;;;;;;;34.50;21.83;;;;;;;0.92;76.38;97810.81;5049637;28;20045;-92
2022/01/15 08:13:20;;;;;;;37.63;23.92;;;;;;;0.94;76.90;97808.97;5043772;28;20053;-89
2022/01/15 08:15:50;;;;;;;35.13;22.55;;;;;;;1.00;76.62;97806.88;5042576;28;20073;-92
2022/01/15 08:18:21;;;;;;;43.17;22.63;;;;;;;1.03;76.32;97811.03;5044128;28;20049;-89
2022/01/15 08:20:52;;;;;;;39.60;23.23;;;;;;;1.05;76.48;97810.91;5043854;28;20042;-93
2022/01/15 08:23:21;;;;;;;37.97;23.73;;;;;;;1.05;76.12;97814.31;5041519;28;20049;-92
2022/01/15 08:25:48;;;;;;;33.85;22.80;;;;;;;1.08;76.16;97811.56;5041710;28;20434;-91
2022/01/15 08:28:27;;;;;;;33.70;21.60;;;;;;;1.09;76.70;97815.75;5040510;28;20057;-92
2022/01/15 08:30:55;;;;;;;30.52;20.75;;;;;;;1.07;76.06;97809.88;5041519;28;20055;-92
2022/01/15 08:33:32;;;;;;;42.55;25.73;;;;;;;1.09;76.17;97809.81;5025750;28;20113;-91
2022/01/15 08:36:00;;;;;;;34.83;21.73;;;;;;;1.10;76.14;97808.91;5042679;28;20160;-90
2022/01/15 08:38:28;;;;;;;33.20;20.70;;;;;;;1.08;76.31;97821.03;5043344;28;20072;-85
2022/01/15 08:41:16;;;;;;;32.33;20.60;;;;;;;1.05;75.66;97824.59;5043015;28;20120;-82
2022/01/15 08:43:52;;;;;;;28.88;18.45;;;;;;;1.01;75.22;97818.00;5050361;28;20033;-92
2022/01/15 08:46:23;;;;;;;28.85;18.98;;;;;;;0.94;75.42;97814.13;5043377;28;20053;-80
2022/01/15 08:48:52;;;;;;;30.10;18.75;;;;;;;0.89;74.99;97818.72;5042339;28;20065;-85
2022/01/15 08:51:20;;;;;;;28.85;17.90;;;;;;;0.82;74.81;97811.38;5041623;28;20046;-80
2022/01/15 08:53:48;;;;;;;29.20;18.20;;;;;;;0.78;74.92;97809.88;5042402;28;20046;-81
2022/01/15 08:56:17;;;;;;;32.53;19.33;;;;;;;0.70;74.99;97821.53;5042565;28;20061;-80
2022/01/15 08:58:44;;;;;;;31.55;18.80;;;;;;;0.64;75.36;97809.09;5042485;28;20060;-85
2022/01/15 09:01:13;;;;;;;31.00;17.92;;;;;;;0.60;75.50;97806.69;5041718;28;20053;-80
2022/01/15 09:03:43;;;;;;;30.55;18.23;;;;;;;0.62;75.50;97801.47;5041754;28;20075;-81
2022/01/15 09:06:12;;;;;;;30.70;19.20;;;;;;;0.65;75.18;97803.84;5042521;28;20052;-83
2022/01/15 09:08:42;;;;;;;26.58;17.30;;;;;;;0.66;75.99;97808.06;5043472;28;20049;-82
2022/01/15 09:11:09;;;;;;;27.77;17.65;;;;;;;0.63;75.63;97808.22;5043799;28;20057;-81
2022/01/15 09:13:37;;;;;;;22.75;15.18;;;;;;;0.60;75.56;97814.38;5043491;28;20542;-82
2022/01/15 09:16:05;;;;;;;26.48;16.33;;;;;;;0.57;75.53;97814.56;5041928;28;20365;-85
2022/01/15 09:18:34;;;;;;;23.73;14.80;;;;;;;0.54;75.46;97809.59;5042266;28;20507;-87
2022/01/15 09:21:01;;;;;;;23.90;13.50;;;;;;;0.49;75.19;97800.53;5039253;28;20053;-89
2022/01/15 09:23:31;;;;;;;23.60;14.45;;;;;;;0.44;75.57;97803.34;5039369;28;20069;-89
2022/01/15 09:25:59;;;;;;;24.23;14.13;;;;;;;0.46;75.60;97804.09;5040098;28;20045;-86
2022/01/15 09:31:15;;;;;;;26.17;14.02;;;;;;;0.44;75.25;97793.09;5039184;28;20053;-87
2022/01/15 09:33:44;;;;;;;24.25;14.10;;;;;;;0.48;75.61;97792.00;5043706;28;20053;-91
2022/01/15 09:36:11;;;;;;;25.80;14.35;;;;;;;0.50;74.86;97794.47;5039586;28;20061;-89
2022/01/15 09:38:41;;;;;;;21.88;13.80;;;;;;;0.49;75.43;97797.97;5037737;28;20060;-85
2022/01/15 09:41:09;;;;;;;22.52;13.18;;;;;;;0.53;75.62;97791.72;5037199;28;20048;-91
2022/01/15 09:43:40;;;;;;;23.98;13.10;;;;;;;0.56;75.95;97792.34;5036190;28;20060;-89
2022/01/15 09:46:09;;;;;;;26.50;14.55;;;;;;;0.62;76.67;97791.19;5036156;28;20096;-85
2022/01/15 09:48:39;;;;;;;22.80;12.90;;;;;;;0.70;76.13;97788.16;5036779;28;20046;-86
2022/01/15 09:51:07;;;;;;;21.73;13.18;;;;;;;0.75;75.93;97786.97;5037424;28;20494;-90
2022/01/15 09:53:35;;;;;;;23.13;13.32;;;;;;;0.80;76.65;97790.09;5038297;28;20049;-86
2022/01/15 09:56:06;;;;;;;25.10;13.18;;;;;;;0.82;77.00;97788.25;5038127;28;20049;-87
2022/01/15 09:58:34;;;;;;;27.08;14.90;;;;;;;0.80;75.91;97789.25;5038166;28;20144;-87
2022/01/15 10:01:02;;;;;;;24.20;14.48;;;;;;;0.76;75.14;97793.75;5038054;28;20054;-88
2022/01/15 10:03:30;;;;;;;24.52;14.77;;;;;;;0.75;74.88;97784.41;5037862;28;20133;-85
2022/01/15 10:06:04;;;;;;;20.77;12.15;;;;;;;0.77;76.19;97787.72;5037613;28;20063;-92
2022/01/15 10:08:32;;;;;;;24.52;12.52;;;;;;;0.77;74.90;97784.31;5037421;28;20136;-85
2022/01/15 10:11:07;;;;;;;20.13;11.77;;;;;;;0.78;75.19;97781.63;5036797;28;20156;-88
2022/01/15 10:13:43;;;;;;;22.13;12.40;;;;;;;0.85;75.22;97781.28;5036968;28;20059;-90
2022/01/15 10:16:13;;;;;;;25.23;14.18;;;;;;;0.89;74.19;97777.63;5038387;28;20053;-86
2022/01/15 10:18:45;;;;;;;20.88;12.57;;;;;;;0.87;74.29;97774.31;5038250;28;20556;-85
2022/01/15 10:21:14;;;;;;;21.88;12.57;;;;;;;0.93;74.34;97771.38;5038134;28;20053;-87
2022/01/15 10:23:47;;;;;;;22.65;12.00;;;;;;;1.00;74.15;97780.34;5037833;28;20084;-82
2022/01/15 10:26:17;;;;;;;22.20;11.20;;;;;;;1.09;73.97;97774.66;5039316;28;20061;-88
2022/01/15 10:28:58;;;;;;;24.30;12.30;;;;;;;1.14;75.19;97777.78;5035552;28;20049;-89
2022/01/15 10:31:27;;;;;;;24.42;13.32;;;;;;;1.29;75.14;97777.75;5034985;28;20067;-87
2022/01/15 10:33:56;;;;;;;20.60;11.65;;;;;;;1.49;74.81;97779.91;5035307;28;20061;-90
2022/01/15 10:36:25;;;;;;;21.35;13.18;;;;;;;1.91;74.08;97772.97;5034574;28;20140;-88
2022/01/15 10:38:53;;;;;;;20.25;10.85;;;;;;;2.57;72.12;97771.22;5034064;28;20060;-86
2022/01/15 10:41:32;;;;;;;19.08;11.95;;;;;;;3.89;68.32;97766.34;5034984;28;20055;-88
2022/01/15 10:44:03;;;;;;;18.50;11.65;;;;;;;4.95;64.11;97769.63;5035512;28;20500;-87
2022/01/15 10:46:35;;;;;;;17.02;11.13;;;;;;;4.97;63.52;97763.53;5036293;28;20061;-89
2022/01/15 10:49:22;;;;;;;;;;;;;;;4.88;65.24;97757.31;5037258;28;20053;-88
2022/01/15 10:52:09;;;;;;;15.63;10.13;;;;;;;4.82;65.05;97761.16;5036547;28;19921;-89
2022/01/15 10:54:51;;;;;;;16.55;10.35;;;;;;;4.68;64.19;97753.63;5037296;28;20053;-89
2022/01/15 10:57:20;;;;;;;15.98;9.70;;;;;;;4.32;65.41;97748.53;5036069;28;20046;-84
2022/01/15 11:00:24;;;;;;;20.30;11.32;;;;;;;4.10;65.73;97745.91;5037411;28;20049;-88
2022/01/15 11:02:53;;;;;;;16.70;10.88;;;;;;;4.04;67.25;97736.00;5039104;28;20430;-86
2022/01/15 11:05:30;;;;;;;18.90;11.48;;;;;;;4.16;67.43;97736.88;5036989;28;20088;-84
2022/01/15 11:10:27;;;;;;;20.65;10.50;;;;;;;4.13;66.68;97732.75;5042267;28;20048;-78
2022/01/15 11:12:55;;;;;;;19.17;11.20;;;;;;;4.67;66.65;97736.47;5051552;28;20041;-76
2022/01/15 11:15:24;;;;;;;22.13;11.32;;;;;;;5.07;64.26;97725.66;5051599;28;20060;-77
2022/01/15 11:17:52;;;;;;;18.67;11.43;;;;;;;5.23;63.83;97733.88;5051614;28;20033;-77
2022/01/15 11:20:24;;;;;;;20.70;10.75;;;;;;;5.96;61.69;97732.38;5051315;28;20052;-76
2022/01/15 11:22:52;;;;;;;19.50;11.23;;;;;;;6.37;61.73;97719.56;5051307;28;20054;-78
2022/01/15 11:25:19;;;;;;;15.48;9.45;;;;;;;6.86;59.64;97712.81;5051177;28;20059;-77
2022/01/15 11:27:47;;;;;;;16.88;10.38;;;;;;;6.92;61.16;97714.09;5050770;28;20053;-77
2022/01/15 11:30:15;;;;;;;14.75;10.07;;;;;;;7.53;59.98;97713.97;5042383;28;20140;-73
2022/01/15 11:32:44;;;;;;;16.85;11.10;;;;;;;7.47;59.52;97711.06;5032681;28;20052;-75
2022/01/15 11:35:13;;;;;;;16.00;10.88;;;;;;;8.40;57.19;97702.72;5032649;28;20073;-75
2022/01/15 11:37:47;;;;;;;15.50;9.82;;;;;;;9.53;53.04;97694.78;5032279;28;20499;-75
2022/01/15 11:40:35;;;;;;;13.60;9.57;;;;;;;10.09;51.86;97696.25;5034289;28;20057;-76
2022/01/15 11:43:41;;;;;;;15.57;9.30;;;;;;;11.03;49.48;97695.50;5036480;28;20060;-75
2022/01/15 11:46:31;;;;;;;19.75;12.38;;;;;;;11.69;47.72;97693.03;5036350;28;20737;-76
2022/01/15 11:49:39;;;;;;;21.13;12.77;;;;;;;11.12;49.78;97686.72;5031227;28;20076;-76
2022/01/15 11:52:32;;;;;;;15.23;10.18;;;;;;;9.98;49.84;97686.88;5036456;28;20466;-76
2022/01/15 11:55:24;;;;;;;12.60;8.90;;;;;;;9.63;53.83;97685.13;5044122;28;20060;-76
2022/01/15 11:57:58;;;;;;;13.27;8.65;;;;;;;9.42;53.09;97681.03;5043070;28;20144;-78
2022/01/15 12:00:43;;;;;;;13.68;9.43;;;;;;;8.97;53.10;97687.03;5037381;28;20503;-77
2022/01/15 12:03:15;;;;;;;12.73;9.35;;;;;;;8.66;56.74;97684.72;5036523;28;20083;-78